Terminal Aerodrome Forecast
Issued by NWS

Home | Current Version | Previous Version | Text Only | Print | Product List | Glossary Off
Versions: 1 2 3 4 5 6 7 8 9 10 11 12 13 14

000
FTUS42 KMHX 200900 AAB
TAFOAJ
TAF AMD
KOAJ 200926Z 2009/2106 02013G22KT 6SM -RADZ SCT009 BKN035
      TEMPO 2010/2012 BKN009
     FM201400 03017G27KT 6SM -RADZ SCT010 BKN020
     FM210300 01015G25KT P6SM OVC009
      AMD LTD TO CLD VIS AND WIND=

USA.gov is the U.S. government's official web portal to all federal, state and local government web resources and services.